sensor_id;sensor_type;location;lat;lon;timestamp;temperature;humidity
4787;DHT22;62338;48.832;9.422;2023-04-21T00:01:29;4.00;99.90
4787;DHT22;62338;48.832;9.422;2023-04-21T00:03:30;4.00;99.90
4787;DHT22;62338;48.832;9.422;2023-04-21T00:05:34;4.00;99.90
4787;DHT22;62338;48.832;9.422;2023-04-21T00:07:36;4.00;99.90
4787;DHT22;62338;48.832;9.422;2023-04-21T00:09:39;4.00;99.90
4787;DHT22;62338;48.832;9.422;2023-04-21T00:11:41;4.00;99.90
4787;DHT22;62338;48.832;9.422;2023-04-21T00:13:43;4.00;99.90
4787;DHT22;62338;48.832;9.422;2023-04-21T00:15:44;3.90;99.90
4787;DHT22;62338;48.832;9.422;2023-04-21T00:17:46;3.90;99.90
4787;DHT22;62338;48.832;9.422;2023-04-21T00:19:48;3.80;99.90
4787;DHT22;62338;48.832;9.422;2023-04-21T00:21:50;3.80;99.90
4787;DHT22;62338;48.832;9.422;2023-04-21T00:23:51;3.80;99.90
4787;DHT22;62338;48.832;9.422;2023-04-21T00:25:53;3.80;99.90
4787;DHT22;62338;48.832;9.422;2023-04-21T00:27:55;3.70;99.90
4787;DHT22;62338;48.832;9.422;2023-04-21T00:29:56;3.70;99.90
4787;DHT22;62338;48.832;9.422;2023-04-21T00:31:58;3.70;99.90
4787;DHT22;62338;48.832;9.422;2023-04-21T00:34:02;3.70;99.90
4787;DHT22;62338;48.832;9.422;2023-04-21T00:36:04;3.70;99.90
4787;DHT22;62338;48.832;9.422;2023-04-21T00:38:06;3.70;99.90
4787;DHT22;62338;48.832;9.422;2023-04-21T00:40:08;3.70;99.90
4787;DHT22;62338;48.832;9.422;2023-04-21T00:42:10;3.70;99.90
4787;DHT22;62338;48.832;9.422;2023-04-21T00:44:12;3.70;99.90
4787;DHT22;62338;48.832;9.422;2023-04-21T00:46:13;3.70;99.90
4787;DHT22;62338;48.832;9.422;2023-04-21T00:48:16;3.70;99.90
4787;DHT22;62338;48.832;9.422;2023-04-21T00:50:17;3.70;99.90
4787;DHT22;62338;48.832;9.422;2023-04-21T00:52:19;3.60;99.90
4787;DHT22;62338;48.832;9.422;2023-04-21T00:54:23;3.60;99.90
4787;DHT22;62338;48.832;9.422;2023-04-21T00:56:27;3.60;99.90
4787;DHT22;62338;48.832;9.422;2023-04-21T00:58:32;3.70;99.90
4787;DHT22;62338;48.832;9.422;2023-04-21T01:00:34;3.70;99.90
4787;DHT22;62338;48.832;9.422;2023-04-21T01:02:38;3.70;99.90
4787;DHT22;62338;48.832;9.422;2023-04-21T01:04:40;3.70;99.90
4787;DHT22;62338;48.832;9.422;2023-04-21T01:06:43;3.70;99.90
4787;DHT22;62338;48.832;9.422;2023-04-21T01:08:45;3.70;99.90
4787;DHT22;62338;48.832;9.422;2023-04-21T01:10:47;3.70;99.90
4787;DHT22;62338;48.832;9.422;2023-04-21T01:12:49;3.80;99.90
4787;DHT22;62338;48.832;9.422;2023-04-21T01:14:50;3.80;99.90
4787;DHT22;62338;48.832;9.422;2023-04-21T01:16:52;3.90;99.90
4787;DHT22;62338;48.832;9.422;2023-04-21T01:18:54;3.90;99.90
4787;DHT22;62338;48.832;9.422;2023-04-21T01:20:56;3.80;99.90
4787;DHT22;62338;48.832;9.422;2023-04-21T01:22:58;3.80;99.90
4787;DHT22;62338;48.832;9.422;2023-04-21T01:25:00;3.90;99.90
4787;DHT22;62338;48.832;9.422;2023-04-21T01:27:02;3.80;99.90
4787;DHT22;62338;48.832;9.422;2023-04-21T01:29:04;3.90;99.90
4787;DHT22;62338;48.832;9.422;2023-04-21T01:31:06;3.90;99.90
4787;DHT22;62338;48.832;9.422;2023-04-21T01:33:08;3.90;99.90
4787;DHT22;62338;48.832;9.422;2023-04-21T01:35:10;3.90;99.90
4787;DHT22;62338;48.832;9.422;2023-04-21T01:37:17;3.80;99.90
4787;DHT22;62338;48.832;9.422;2023-04-21T01:39:19;3.80;99.90
4787;DHT22;62338;48.832;9.422;2023-04-21T01:41:21;3.80;99.90
4787;DHT22;62338;48.832;9.422;2023-04-21T01:43:24;3.80;99.90
4787;DHT22;62338;48.832;9.422;2023-04-21T01:45:26;3.70;99.90
4787;DHT22;62338;48.832;9.422;2023-04-21T01:47:28;3.70;99.90
4787;DHT22;62338;48.832;9.422;2023-04-21T01:49:30;3.60;99.90
4787;DHT22;62338;48.832;9.422;2023-04-21T01:51:31;3.60;99.90
4787;DHT22;62338;48.832;9.422;2023-04-21T01:53:33;3.60;99.90
4787;DHT22;62338;48.832;9.422;2023-04-21T01:55:35;3.50;99.90
4787;DHT22;62338;48.832;9.422;2023-04-21T01:57:37;3.50;99.90
4787;DHT22;62338;48.832;9.422;2023-04-21T01:59:38;3.50;99.90
4787;DHT22;62338;48.832;9.422;2023-04-21T02:01:40;3.50;99.90
4787;DHT22;62338;48.832;9.422;2023-04-21T02:03:42;3.50;99.90
4787;DHT22;62338;48.832;9.422;2023-04-21T02:05:44;3.60;99.90
4787;DHT22;62338;48.832;9.422;2023-04-21T02:07:46;3.50;99.90
4787;DHT22;62338;48.832;9.422;2023-04-21T02:09:48;3.50;99.90
4787;DHT22;62338;48.832;9.422;2023-04-21T02:11:49;3.50;99.90
4787;DHT22;62338;48.832;9.422;2023-04-21T02:13:52;3.50;99.90
4787;DHT22;62338;48.832;9.422;2023-04-21T02:15:54;3.50;99.90
4787;DHT22;62338;48.832;9.422;2023-04-21T02:18:12;3.50;99.90
4787;DHT22;62338;48.832;9.422;2023-04-21T02:20:15;3.40;99.90
4787;DHT22;62338;48.832;9.422;2023-04-21T02:22:17;3.40;99.90
4787;DHT22;62338;48.832;9.422;2023-04-21T02:24:19;3.40;99.90
4787;DHT22;62338;48.832;9.422;2023-04-21T02:26:20;3.30;99.90
4787;DHT22;62338;48.832;9.422;2023-04-21T02:28:22;3.30;99.90
4787;DHT22;62338;48.832;9.422;2023-04-21T02:30:24;3.20;99.90
4787;DHT22;62338;48.832;9.422;2023-04-21T02:32:27;3.20;99.90
4787;DHT22;62338;48.832;9.422;2023-04-21T02:34:28;3.30;99.90
4787;DHT22;62338;48.832;9.422;2023-04-21T02:36:30;3.20;99.90
4787;DHT22;62338;48.832;9.422;2023-04-21T02:38:32;3.10;99.90
4787;DHT22;62338;48.832;9.422;2023-04-21T02:40:34;3.10;99.90
4787;DHT22;62338;48.832;9.422;2023-04-21T02:42:36;3.20;99.90
4787;DHT22;62338;48.832;9.422;2023-04-21T02:44:38;3.20;99.90
4787;DHT22;62338;48.832;9.422;2023-04-21T02:46:40;3.20;99.90
4787;DHT22;62338;48.832;9.422;2023-04-21T02:48:42;3.20;99.90
4787;DHT22;62338;48.832;9.422;2023-04-21T02:50:44;3.10;99.90
4787;DHT22;62338;48.832;9.422;2023-04-21T02:52:45;3.00;99.90
4787;DHT22;62338;48.832;9.422;2023-04-21T02:54:47;3.00;99.90
4787;DHT22;62338;48.832;9.422;2023-04-21T02:56:49;3.00;99.90
4787;DHT22;62338;48.832;9.422;2023-04-21T02:58:51;2.90;99.90
4787;DHT22;62338;48.832;9.422;2023-04-21T03:00:52;2.90;99.90
4787;DHT22;62338;48.832;9.422;2023-04-21T03:02:54;2.90;99.90
4787;DHT22;62338;48.832;9.422;2023-04-21T03:04:56;2.90;99.90
4787;DHT22;62338;48.832;9.422;2023-04-21T03:06:58;2.90;99.90
4787;DHT22;62338;48.832;9.422;2023-04-21T03:09:00;2.90;99.90
4787;DHT22;62338;48.832;9.422;2023-04-21T03:11:02;2.90;99.90
4787;DHT22;62338;48.832;9.422;2023-04-21T03:13:04;2.90;99.90
4787;DHT22;62338;48.832;9.422;2023-04-21T03:15:06;2.90;99.90
4787;DHT22;62338;48.832;9.422;2023-04-21T03:17:07;3.40;99.90
4787;DHT22;62338;48.832;9.422;2023-04-21T03:19:09;2.90;99.90
4787;DHT22;62338;48.832;9.422;2023-04-21T03:21:11;2.90;99.90
4787;DHT22;62338;48.832;9.422;2023-04-21T03:23:13;3.00;99.90
4787;DHT22;62338;48.832;9.422;2023-04-21T03:25:14;2.90;99.90
4787;DHT22;62338;48.832;9.422;2023-04-21T03:27:16;2.90;99.90
4787;DHT22;62338;48.832;9.422;2023-04-21T03:29:18;2.90;99.90
4787;DHT22;62338;48.832;9.422;2023-04-21T03:31:20;2.80;99.90
4787;DHT22;62338;48.832;9.422;2023-04-21T03:33:22;2.90;99.90
4787;DHT22;62338;48.832;9.422;2023-04-21T03:35:24;2.90;99.90
4787;DHT22;62338;48.832;9.422;2023-04-21T03:37:25;3.00;99.90
4787;DHT22;62338;48.832;9.422;2023-04-21T03:39:27;3.00;99.90
4787;DHT22;62338;48.832;9.422;2023-04-21T03:41:29;3.00;99.90
4787;DHT22;62338;48.832;9.422;2023-04-21T03:43:31;2.90;99.90
4787;DHT22;62338;48.832;9.422;2023-04-21T03:45:34;2.90;99.90
4787;DHT22;62338;48.832;9.422;2023-04-21T03:47:36;2.90;99.90
4787;DHT22;62338;48.832;9.422;2023-04-21T03:49:38;2.90;99.90
4787;DHT22;62338;48.832;9.422;2023-04-21T03:51:40;2.90;99.90
4787;DHT22;62338;48.832;9.422;2023-04-21T03:53:41;2.90;99.90
4787;DHT22;62338;48.832;9.422;2023-04-21T03:55:43;2.90;99.90
4787;DHT22;62338;48.832;9.422;2023-04-21T03:57:49;2.90;99.90
4787;DHT22;62338;48.832;9.422;2023-04-21T03:59:50;3.00;99.90
4787;DHT22;62338;48.832;9.422;2023-04-21T04:01:52;3.00;99.90
4787;DHT22;62338;48.832;9.422;2023-04-21T04:03:54;3.00;99.90
4787;DHT22;62338;48.832;9.422;2023-04-21T04:05:56;3.00;99.90
4787;DHT22;62338;48.832;9.422;2023-04-21T04:07:57;2.90;99.90
4787;DHT22;62338;48.832;9.422;2023-04-21T04:09:59;2.90;99.90
4787;DHT22;62338;48.832;9.422;2023-04-21T04:12:01;2.90;99.90
4787;DHT22;62338;48.832;9.422;2023-04-21T04:14:03;2.90;99.90
4787;DHT22;62338;48.832;9.422;2023-04-21T04:16:05;2.90;99.90
4787;DHT22;62338;48.832;9.422;2023-04-21T04:18:07;2.90;99.90
4787;DHT22;62338;48.832;9.422;2023-04-21T04:20:09;3.00;99.90
4787;DHT22;62338;48.832;9.422;2023-04-21T04:22:11;3.00;99.90
4787;DHT22;62338;48.832;9.422;2023-04-21T04:24:13;3.00;99.90
4787;DHT22;62338;48.832;9.422;2023-04-21T04:26:14;3.00;99.90
4787;DHT22;62338;48.832;9.422;2023-04-21T04:28:16;3.10;99.90
4787;DHT22;62338;48.832;9.422;2023-04-21T04:30:18;3.10;99.90
4787;DHT22;62338;48.832;9.422;2023-04-21T04:32:20;3.20;99.90
4787;DHT22;62338;48.832;9.422;2023-04-21T04:34:22;3.20;99.90
4787;DHT22;62338;48.832;9.422;2023-04-21T04:36:24;3.30;99.90
4787;DHT22;62338;48.832;9.422;2023-04-21T04:38:25;3.30;99.90
4787;DHT22;62338;48.832;9.422;2023-04-21T04:40:28;3.40;99.90
4787;DHT22;62338;48.832;9.422;2023-04-21T04:42:31;3.50;99.90
4787;DHT22;62338;48.832;9.422;2023-04-21T04:44:37;3.60;99.90
4787;DHT22;62338;48.832;9.422;2023-04-21T04:46:39;3.60;99.90
4787;DHT22;62338;48.832;9.422;2023-04-21T04:48:41;3.60;99.90
4787;DHT22;62338;48.832;9.422;2023-04-21T04:50:43;3.60;99.90
4787;DHT22;62338;48.832;9.422;2023-04-21T04:52:45;3.60;99.90
4787;DHT22;62338;48.832;9.422;2023-04-21T04:54:48;3.70;99.90
4787;DHT22;62338;48.832;9.422;2023-04-21T04:56:49;3.70;99.90
4787;DHT22;62338;48.832;9.422;2023-04-21T04:58:51;3.80;99.90
4787;DHT22;62338;48.832;9.422;2023-04-21T05:00:53;3.90;99.90
4787;DHT22;62338;48.832;9.422;2023-04-21T05:02:55;3.90;99.90
4787;DHT22;62338;48.832;9.422;2023-04-21T05:04:57;3.90;99.90
4787;DHT22;62338;48.832;9.422;2023-04-21T05:06:58;3.90;99.90
4787;DHT22;62338;48.832;9.422;2023-04-21T05:09:00;4.00;99.90
4787;DHT22;62338;48.832;9.422;2023-04-21T05:11:03;4.00;99.90
4787;DHT22;62338;48.832;9.422;2023-04-21T05:13:05;4.00;99.90
4787;DHT22;62338;48.832;9.422;2023-04-21T05:15:07;4.00;99.90
4787;DHT22;62338;48.832;9.422;2023-04-21T05:17:09;4.10;99.90
4787;DHT22;62338;48.832;9.422;2023-04-21T05:19:11;4.10;99.90
4787;DHT22;62338;48.832;9.422;2023-04-21T05:21:13;4.20;99.90
4787;DHT22;62338;48.832;9.422;2023-04-21T05:23:14;4.10;99.90
4787;DHT22;62338;48.832;9.422;2023-04-21T05:25:16;4.20;99.90
4787;DHT22;62338;48.832;9.422;2023-04-21T05:27:18;4.30;99.90
4787;DHT22;62338;48.832;9.422;2023-04-21T05:29:20;4.30;99.90
4787;DHT22;62338;48.832;9.422;2023-04-21T05:31:22;4.30;99.90
4787;DHT22;62338;48.832;9.422;2023-04-21T05:33:24;4.40;99.90
4787;DHT22;62338;48.832;9.422;2023-04-21T05:35:29;4.30;99.90
4787;DHT22;62338;48.832;9.422;2023-04-21T05:37:31;4.40;99.90
4787;DHT22;62338;48.832;9.422;2023-04-21T05:39:33;4.40;99.90
4787;DHT22;62338;48.832;9.422;2023-04-21T05:41:34;4.40;99.90
4787;DHT22;62338;48.832;9.422;2023-04-21T05:43:36;4.40;99.90
4787;DHT22;62338;48.832;9.422;2023-04-21T05:45:39;4.40;99.90
4787;DHT22;62338;48.832;9.422;2023-04-21T05:47:41;4.50;99.90
4787;DHT22;62338;48.832;9.422;2023-04-21T05:49:43;4.40;99.90
4787;DHT22;62338;48.832;9.422;2023-04-21T05:51:50;4.50;99.90
4787;DHT22;62338;48.832;9.422;2023-04-21T05:53:52;4.60;99.90
4787;DHT22;62338;48.832;9.422;2023-04-21T05:55:54;4.60;99.90
4787;DHT22;62338;48.832;9.422;2023-04-21T05:57:55;4.70;99.90
4787;DHT22;62338;48.832;9.422;2023-04-21T05:59:57;4.80;99.90
4787;DHT22;62338;48.832;9.422;2023-04-21T06:01:59;4.90;99.90
4787;DHT22;62338;48.832;9.422;2023-04-21T06:04:01;5.00;99.90
4787;DHT22;62338;48.832;9.422;2023-04-21T06:06:04;5.20;99.90
4787;DHT22;62338;48.832;9.422;2023-04-21T06:08:06;5.20;99.90
4787;DHT22;62338;48.832;9.422;2023-04-21T06:10:11;5.20;99.90
4787;DHT22;62338;48.832;9.422;2023-04-21T06:12:13;5.40;99.90
4787;DHT22;62338;48.832;9.422;2023-04-21T06:14:15;5.40;99.90
4787;DHT22;62338;48.832;9.422;2023-04-21T06:16:16;5.40;99.90
4787;DHT22;62338;48.832;9.422;2023-04-21T06:18:18;5.50;99.90
4787;DHT22;62338;48.832;9.422;2023-04-21T06:20:20;5.60;99.90
4787;DHT22;62338;48.832;9.422;2023-04-21T06:22:22;5.60;99.90
4787;DHT22;62338;48.832;9.422;2023-04-21T06:24:24;5.70;99.90
4787;DHT22;62338;48.832;9.422;2023-04-21T06:26:26;5.80;99.90
4787;DHT22;62338;48.832;9.422;2023-04-21T06:28:28;5.80;99.90
4787;DHT22;62338;48.832;9.422;2023-04-21T06:30:29;5.90;99.90
4787;DHT22;62338;48.832;9.422;2023-04-21T06:32:31;6.00;99.90
4787;DHT22;62338;48.832;9.422;2023-04-21T06:34:34;6.10;99.90
4787;DHT22;62338;48.832;9.422;2023-04-21T06:36:35;6.00;99.90
4787;DHT22;62338;48.832;9.422;2023-04-21T06:38:37;6.00;99.90
4787;DHT22;62338;48.832;9.422;2023-04-21T06:40:42;6.00;99.90
4787;DHT22;62338;48.832;9.422;2023-04-21T06:42:44;5.90;99.90
4787;DHT22;62338;48.832;9.422;2023-04-21T06:44:45;5.90;99.90
4787;DHT22;62338;48.832;9.422;2023-04-21T06:46:49;5.90;99.90
4787;DHT22;62338;48.832;9.422;2023-04-21T06:48:51;5.80;99.90
4787;DHT22;62338;48.832;9.422;2023-04-21T06:50:53;5.80;99.90
4787;DHT22;62338;48.832;9.422;2023-04-21T06:52:55;6.00;99.90
4787;DHT22;62338;48.832;9.422;2023-04-21T06:54:57;6.20;99.90
4787;DHT22;62338;48.832;9.422;2023-04-21T06:56:58;6.50;99.90
4787;DHT22;62338;48.832;9.422;2023-04-21T06:59:00;7.10;99.90
4787;DHT22;62338;48.832;9.422;2023-04-21T07:01:02;8.10;99.90
4787;DHT22;62338;48.832;9.422;2023-04-21T07:03:04;8.80;99.90
4787;DHT22;62338;48.832;9.422;2023-04-21T07:05:07;8.90;99.90
4787;DHT22;62338;48.832;9.422;2023-04-21T07:07:08;8.70;99.90
4787;DHT22;62338;48.832;9.422;2023-04-21T07:09:10;8.50;99.90
4787;DHT22;62338;48.832;9.422;2023-04-21T07:11:12;8.40;95.40
4787;DHT22;62338;48.832;9.422;2023-04-21T07:13:13;8.20;97.20
4787;DHT22;62338;48.832;9.422;2023-04-21T07:15:16;8.10;99.90
4787;DHT22;62338;48.832;9.422;2023-04-21T07:17:18;8.00;99.90
4787;DHT22;62338;48.832;9.422;2023-04-21T07:19:19;8.00;99.90
4787;DHT22;62338;48.832;9.422;2023-04-21T07:21:21;8.00;99.90
4787;DHT22;62338;48.832;9.422;2023-04-21T07:23:23;7.90;99.90
4787;DHT22;62338;48.832;9.422;2023-04-21T07:25:25;7.90;99.90
4787;DHT22;62338;48.832;9.422;2023-04-21T07:27:26;7.80;99.90
4787;DHT22;62338;48.832;9.422;2023-04-21T07:29:28;7.80;99.90
4787;DHT22;62338;48.832;9.422;2023-04-21T07:31:30;7.90;99.90
4787;DHT22;62338;48.832;9.422;2023-04-21T07:33:32;8.00;99.90
4787;DHT22;62338;48.832;9.422;2023-04-21T07:35:33;8.00;99.90
4787;DHT22;62338;48.832;9.422;2023-04-21T07:37:35;8.20;99.90
4787;DHT22;62338;48.832;9.422;2023-04-21T07:39:37;8.30;99.90
4787;DHT22;62338;48.832;9.422;2023-04-21T07:41:38;8.40;96.20
4787;DHT22;62338;48.832;9.422;2023-04-21T07:43:40;8.40;99.90
4787;DHT22;62338;48.832;9.422;2023-04-21T07:45:42;8.60;96.50
4787;DHT22;62338;48.832;9.422;2023-04-21T07:47:45;8.80;99.50
4787;DHT22;62338;48.832;9.422;2023-04-21T07:49:47;8.90;31.40
4787;DHT22;62338;48.832;9.422;2023-04-21T07:51:49;9.20;55.80
4787;DHT22;62338;48.832;9.422;2023-04-21T07:53:51;9.30;1.00
4787;DHT22;62338;48.832;9.422;2023-04-21T07:55:53;9.50;9.80
4787;DHT22;62338;48.832;9.422;2023-04-21T07:57:55;9.60;29.40
4787;DHT22;62338;48.832;9.422;2023-04-21T07:59:57;9.80;1.00
4787;DHT22;62338;48.832;9.422;2023-04-21T08:01:59;9.70;1.00
4787;DHT22;62338;48.832;9.422;2023-04-21T08:04:01;10.00;1.00
4787;DHT22;62338;48.832;9.422;2023-04-21T08:06:03;10.20;1.00
4787;DHT22;62338;48.832;9.422;2023-04-21T08:08:05;10.50;1.00
4787;DHT22;62338;48.832;9.422;2023-04-21T08:10:08;10.90;1.00
4787;DHT22;62338;48.832;9.422;2023-04-21T08:12:10;11.40;99.90
4787;DHT22;62338;48.832;9.422;2023-04-21T08:14:12;11.50;99.90
4787;DHT22;62338;48.832;9.422;2023-04-21T08:16:14;11.70;99.90
4787;DHT22;62338;48.832;9.422;2023-04-21T08:18:16;11.60;99.90
4787;DHT22;62338;48.832;9.422;2023-04-21T08:20:23;11.50;99.90
4787;DHT22;62338;48.832;9.422;2023-04-21T08:22:24;11.90;99.90
4787;DHT22;62338;48.832;9.422;2023-04-21T08:24:26;12.30;99.90
4787;DHT22;62338;48.832;9.422;2023-04-21T08:26:28;12.80;1.00
4787;DHT22;62338;48.832;9.422;2023-04-21T08:28:30;13.20;99.90
4787;DHT22;62338;48.832;9.422;2023-04-21T08:30:32;13.30;1.00
4787;DHT22;62338;48.832;9.422;2023-04-21T08:32:34;13.70;1.00
4787;DHT22;62338;48.832;9.422;2023-04-21T08:34:36;14.30;99.90
4787;DHT22;62338;48.832;9.422;2023-04-21T08:36:38;15.20;1.00
4787;DHT22;62338;48.832;9.422;2023-04-21T08:38:42;15.60;1.00
4787;DHT22;62338;48.832;9.422;2023-04-21T08:40:44;15.60;99.90
4787;DHT22;62338;48.832;9.422;2023-04-21T08:42:47;15.70;1.00
4787;DHT22;62338;48.832;9.422;2023-04-21T08:44:49;16.00;99.90
4787;DHT22;62338;48.832;9.422;2023-04-21T08:46:52;16.40;99.90
4787;DHT22;62338;48.832;9.422;2023-04-21T08:48:57;16.90;99.90
4787;DHT22;62338;48.832;9.422;2023-04-21T08:50:58;17.10;1.00
4787;DHT22;62338;48.832;9.422;2023-04-21T08:53:00;16.50;99.90
4787;DHT22;62338;48.832;9.422;2023-04-21T08:55:02;16.30;99.90
4787;DHT22;62338;48.832;9.422;2023-04-21T08:57:06;16.40;1.00
4787;DHT22;62338;48.832;9.422;2023-04-21T08:59:16;17.20;99.90
4787;DHT22;62338;48.832;9.422;2023-04-21T09:01:18;17.00;99.90
4787;DHT22;62338;48.832;9.422;2023-04-21T09:03:21;17.70;99.90
4787;DHT22;62338;48.832;9.422;2023-04-21T09:05:29;17.20;99.90
4787;DHT22;62338;48.832;9.422;2023-04-21T09:07:36;17.70;1.00
4787;DHT22;62338;48.832;9.422;2023-04-21T09:09:52;17.70;1.00
4787;DHT22;62338;48.832;9.422;2023-04-21T09:11:55;18.60;1.00
4787;DHT22;62338;48.832;9.422;2023-04-21T09:14:00;18.60;1.00
4787;DHT22;62338;48.832;9.422;2023-04-21T09:16:03;18.80;1.00
4787;DHT22;62338;48.832;9.422;2023-04-21T09:18:13;18.00;1.00
4787;DHT22;62338;48.832;9.422;2023-04-21T09:20:18;18.60;1.00
4787;DHT22;62338;48.832;9.422;2023-04-21T09:22:26;19.20;1.00
4787;DHT22;62338;48.832;9.422;2023-04-21T09:24:27;19.60;1.00
4787;DHT22;62338;48.832;9.422;2023-04-21T09:26:29;19.90;99.90
4787;DHT22;62338;48.832;9.422;2023-04-21T09:28:31;20.10;99.90
4787;DHT22;62338;48.832;9.422;2023-04-21T09:30:37;20.10;99.90
4787;DHT22;62338;48.832;9.422;2023-04-21T09:32:39;20.20;99.90
4787;DHT22;62338;48.832;9.422;2023-04-21T09:34:42;20.30;99.90
4787;DHT22;62338;48.832;9.422;2023-04-21T09:36:44;20.50;99.90
4787;DHT22;62338;48.832;9.422;2023-04-21T09:39:01;20.40;99.90
4787;DHT22;62338;48.832;9.422;2023-04-21T09:41:07;20.30;99.90
4787;DHT22;62338;48.832;9.422;2023-04-21T09:43:09;20.90;99.90
4787;DHT22;62338;48.832;9.422;2023-04-21T09:45:12;20.80;99.90
4787;DHT22;62338;48.832;9.422;2023-04-21T09:47:40;20.40;99.90
4787;DHT22;62338;48.832;9.422;2023-04-21T09:49:43;20.50;99.90
4787;DHT22;62338;48.832;9.422;2023-04-21T09:51:45;20.50;99.90
4787;DHT22;62338;48.832;9.422;2023-04-21T09:53:53;20.50;99.90
4787;DHT22;62338;48.832;9.422;2023-04-21T09:55:58;20.60;99.90
4787;DHT22;62338;48.832;9.422;2023-04-21T09:58:01;21.10;99.90
4787;DHT22;62338;48.832;9.422;2023-04-21T10:00:07;21.00;99.90
4787;DHT22;62338;48.832;9.422;2023-04-21T10:02:10;21.00;99.90
4787;DHT22;62338;48.832;9.422;2023-04-21T10:04:14;20.50;99.90
4787;DHT22;62338;48.832;9.422;2023-04-21T10:06:16;20.50;99.90
4787;DHT22;62338;48.832;9.422;2023-04-21T10:08:18;20.90;99.90
4787;DHT22;62338;48.832;9.422;2023-04-21T10:10:28;21.00;99.90
4787;DHT22;62338;48.832;9.422;2023-04-21T10:12:32;21.00;99.90
4787;DHT22;62338;48.832;9.422;2023-04-21T10:14:34;20.90;99.90
4787;DHT22;62338;48.832;9.422;2023-04-21T10:16:36;20.90;99.90
4787;DHT22;62338;48.832;9.422;2023-04-21T10:18:43;20.40;99.90
4787;DHT22;62338;48.832;9.422;2023-04-21T10:20:55;20.50;99.90
4787;DHT22;62338;48.832;9.422;2023-04-21T10:22:57;20.90;99.90
4787;DHT22;62338;48.832;9.422;2023-04-21T10:25:00;21.40;99.90
4787;DHT22;62338;48.832;9.422;2023-04-21T10:27:03;21.40;99.90
4787;DHT22;62338;48.832;9.422;2023-04-21T10:29:06;21.50;99.90
4787;DHT22;62338;48.832;9.422;2023-04-21T10:31:22;21.40;99.90
4787;DHT22;62338;48.832;9.422;2023-04-21T10:33:26;21.60;99.90
4787;DHT22;62338;48.832;9.422;2023-04-21T10:35:57;21.30;99.90
4787;DHT22;62338;48.832;9.422;2023-04-21T10:38:00;20.70;99.90
4787;DHT22;62338;48.832;9.422;2023-04-21T10:40:02;20.60;99.90
4787;DHT22;62338;48.832;9.422;2023-04-21T10:44:15;20.70;99.90
4787;DHT22;62338;48.832;9.422;2023-04-21T10:48:38;20.60;99.90
4787;DHT22;62338;48.832;9.422;2023-04-21T10:50:40;20.70;99.90
4787;DHT22;62338;48.832;9.422;2023-04-21T10:52:46;21.00;99.90
4787;DHT22;62338;48.832;9.422;2023-04-21T10:56:54;20.90;99.90
4787;DHT22;62338;48.832;9.422;2023-04-21T10:58:59;20.90;99.90
4787;DHT22;62338;48.832;9.422;2023-04-21T11:01:01;20.90;99.90
4787;DHT22;62338;48.832;9.422;2023-04-21T11:03:05;20.90;99.90
4787;DHT22;62338;48.832;9.422;2023-04-21T11:05:08;20.90;99.90
4787;DHT22;62338;48.832;9.422;2023-04-21T11:07:14;20.60;99.90
4787;DHT22;62338;48.832;9.422;2023-04-21T11:09:19;20.70;99.90
4787;DHT22;62338;48.832;9.422;2023-04-21T11:11:22;20.90;99.90
4787;DHT22;62338;48.832;9.422;2023-04-21T11:13:27;20.80;99.90
4787;DHT22;62338;48.832;9.422;2023-04-21T11:15:35;20.50;99.90
4787;DHT22;62338;48.832;9.422;2023-04-21T11:17:37;20.10;99.90
4787;DHT22;62338;48.832;9.422;2023-04-21T11:19:41;19.90;1.00
4787;DHT22;62338;48.832;9.422;2023-04-21T11:21:47;19.90;1.00
4787;DHT22;62338;48.832;9.422;2023-04-21T11:23:54;19.90;1.00
4787;DHT22;62338;48.832;9.422;2023-04-21T11:25:58;19.90;1.00
4787;DHT22;62338;48.832;9.422;2023-04-21T11:28:00;19.70;1.00
4787;DHT22;62338;48.832;9.422;2023-04-21T11:30:02;19.90;1.00
4787;DHT22;62338;48.832;9.422;2023-04-21T11:32:07;20.20;99.90
4787;DHT22;62338;48.832;9.422;2023-04-21T11:34:09;20.50;1.00
4787;DHT22;62338;48.832;9.422;2023-04-21T11:36:11;20.70;1.00
4787;DHT22;62338;48.832;9.422;2023-04-21T11:38:13;20.90;99.90
4787;DHT22;62338;48.832;9.422;2023-04-21T11:40:16;20.90;99.90
4787;DHT22;62338;48.832;9.422;2023-04-21T11:42:21;20.70;1.00
4787;DHT22;62338;48.832;9.422;2023-04-21T11:44:49;20.50;1.00
4787;DHT22;62338;48.832;9.422;2023-04-21T11:46:51;20.80;99.90
4787;DHT22;62338;48.832;9.422;2023-04-21T11:49:06;20.90;99.90
4787;DHT22;62338;48.832;9.422;2023-04-21T11:51:16;20.50;99.90
4787;DHT22;62338;48.832;9.422;2023-04-21T11:53:21;21.00;99.90
4787;DHT22;62338;48.832;9.422;2023-04-21T11:55:22;21.00;99.90
4787;DHT22;62338;48.832;9.422;2023-04-21T11:57:26;20.70;99.90
4787;DHT22;62338;48.832;9.422;2023-04-21T11:59:28;20.50;99.90
4787;DHT22;62338;48.832;9.422;2023-04-21T12:01:30;20.50;99.90
4787;DHT22;62338;48.832;9.422;2023-04-21T12:03:31;20.70;99.90
4787;DHT22;62338;48.832;9.422;2023-04-21T12:05:35;20.70;1.00
4787;DHT22;62338;48.832;9.422;2023-04-21T12:07:37;20.70;99.90
4787;DHT22;62338;48.832;9.422;2023-04-21T12:09:39;21.10;99.90
4787;DHT22;62338;48.832;9.422;2023-04-21T12:11:41;21.30;99.90
4787;DHT22;62338;48.832;9.422;2023-04-21T12:13:44;21.40;99.90
4787;DHT22;62338;48.832;9.422;2023-04-21T12:15:47;21.40;99.90
4787;DHT22;62338;48.832;9.422;2023-04-21T12:17:53;21.50;99.90
4787;DHT22;62338;48.832;9.422;2023-04-21T12:20:04;21.40;99.90
4787;DHT22;62338;48.832;9.422;2023-04-21T12:22:15;21.80;99.90
4787;DHT22;62338;48.832;9.422;2023-04-21T12:24:18;21.90;99.90
4787;DHT22;62338;48.832;9.422;2023-04-21T12:26:20;22.20;99.90
4787;DHT22;62338;48.832;9.422;2023-04-21T12:28:23;22.20;99.90
4787;DHT22;62338;48.832;9.422;2023-04-21T12:30:24;22.20;99.90
4787;DHT22;62338;48.832;9.422;2023-04-21T12:32:26;21.90;99.90
4787;DHT22;62338;48.832;9.422;2023-04-21T12:34:28;22.20;99.90
4787;DHT22;62338;48.832;9.422;2023-04-21T12:36:30;22.20;99.90
4787;DHT22;62338;48.832;9.422;2023-04-21T12:38:32;22.30;99.90
4787;DHT22;62338;48.832;9.422;2023-04-21T12:40:34;21.90;99.90
4787;DHT22;62338;48.832;9.422;2023-04-21T12:42:36;22.50;99.90
4787;DHT22;62338;48.832;9.422;2023-04-21T12:44:39;22.80;99.90
4787;DHT22;62338;48.832;9.422;2023-04-21T12:46:41;23.30;99.90
4787;DHT22;62338;48.832;9.422;2023-04-21T12:48:43;23.20;99.90
4787;DHT22;62338;48.832;9.422;2023-04-21T12:50:45;23.40;99.90
4787;DHT22;62338;48.832;9.422;2023-04-21T12:52:48;23.80;99.90
4787;DHT22;62338;48.832;9.422;2023-04-21T12:54:51;23.70;99.90
4787;DHT22;62338;48.832;9.422;2023-04-21T12:56:53;23.90;99.90
4787;DHT22;62338;48.832;9.422;2023-04-21T12:58:55;23.90;99.90
4787;DHT22;62338;48.832;9.422;2023-04-21T13:00:57;24.10;99.90
4787;DHT22;62338;48.832;9.422;2023-04-21T13:02:59;24.10;99.90
4787;DHT22;62338;48.832;9.422;2023-04-21T13:05:01;23.90;99.90
4787;DHT22;62338;48.832;9.422;2023-04-21T13:07:05;24.00;99.90
4787;DHT22;62338;48.832;9.422;2023-04-21T13:09:07;24.10;99.90
4787;DHT22;62338;48.832;9.422;2023-04-21T13:11:09;24.10;96.20
4787;DHT22;62338;48.832;9.422;2023-04-21T13:13:11;23.70;99.90
4787;DHT22;62338;48.832;9.422;2023-04-21T13:15:13;23.70;95.60
4787;DHT22;62338;48.832;9.422;2023-04-21T13:17:14;23.90;96.70
4787;DHT22;62338;48.832;9.422;2023-04-21T13:19:17;24.10;93.10
4787;DHT22;62338;48.832;9.422;2023-04-21T13:21:18;23.90;89.20
4787;DHT22;62338;48.832;9.422;2023-04-21T13:23:20;23.80;89.10
4787;DHT22;62338;48.832;9.422;2023-04-21T13:25:22;23.70;66.80